LPA502 UEEE-UIII
Flight info
| Callsign | LPA502 |
|---|---|
| Flight time | N/A |
| Altitude | 36000 |
| Route | LEPRI6E LEPRI B155 OLDEP W269 GARAK W225 KA KA5V |
| Aircraft | R722/M-SDFGRWY/S |
Departure
| Time | 2026-04-15 19:02 |
|---|---|
| Airport | Platon Oyunsky Yakutsk International Airport (UEEE) |
Arrival
| Time | N/A |
|---|---|
| Airport | Irkutsk International Airport (UIII) |
| Time | Latitude | Longitude | Altitude | Speed | Heading |
|---|---|---|---|---|---|
| 2026-04-15 18:20 | 62.09298 | 129.76088 | 335 ft | 0 kts | 299° |
| 2026-04-15 18:56 | 62.09304 | 129.76064 | 334 ft | 4 kts | 299° |
| 2026-04-15 18:56 | 62.09311 | 129.75992 | 334 ft | 6 kts | 243° |
| 2026-04-15 18:56 | 62.09272 | 129.75924 | 334 ft | 9 kts | 210° |
| 2026-04-15 18:56 | 62.09213 | 129.75851 | 332 ft | 11 kts | 210° |
| 2026-04-15 18:57 | 62.09150 | 129.75774 | 332 ft | 8 kts | 210° |
| 2026-04-15 18:57 | 62.09091 | 129.75702 | 332 ft | 11 kts | 209° |
| 2026-04-15 18:57 | 62.09023 | 129.75621 | 331 ft | 10 kts | 209° |
| 2026-04-15 18:57 | 62.08952 | 129.75535 | 331 ft | 13 kts | 210° |
| 2026-04-15 18:58 | 62.08878 | 129.75446 | 332 ft | 13 kts | 210° |
| 2026-04-15 18:58 | 62.08796 | 129.75345 | 329 ft | 12 kts | 210° |
| 2026-04-15 18:58 | 62.08734 | 129.75357 | 333 ft | 6 kts | 140° |
| 2026-04-15 18:58 | 62.08692 | 129.75383 | 333 ft | 8 kts | 195° |
| 2026-04-15 18:59 | 62.08630 | 129.75341 | 333 ft | 11 kts | 195° |
| 2026-04-15 18:59 | 62.08554 | 129.75285 | 332 ft | 8 kts | 209° |
| 2026-04-15 18:59 | 62.08492 | 129.75212 | 329 ft | 12 kts | 209° |
| 2026-04-15 18:59 | 62.08423 | 129.75130 | 330 ft | 10 kts | 209° |
| 2026-04-15 19:00 | 62.08352 | 129.75122 | 330 ft | 12 kts | 137° |
| 2026-04-15 19:00 | 62.08309 | 129.75265 | 332 ft | 12 kts | 119° |
| 2026-04-15 19:00 | 62.08271 | 129.75407 | 332 ft | 11 kts | 119° |
| 2026-04-15 19:00 | 62.08231 | 129.75560 | 333 ft | 11 kts | 119° |
| 2026-04-15 19:01 | 62.08217 | 129.75701 | 332 ft | 11 kts | 61° |
| 2026-04-15 19:01 | 62.08229 | 129.75731 | 332 ft | 0 kts | 39° |
| 2026-04-15 19:01 | 62.08239 | 129.75748 | 332 ft | 11 kts | 39° |
| 2026-04-15 19:02 | 62.08488 | 129.76149 | 336 ft | 79 kts | 37° |
| 2026-04-15 19:02 | 62.09104 | 129.77128 | 330 ft | 138 kts | 36° |
| 2026-04-15 19:02 | 62.09972 | 129.78488 | 574 ft | 167 kts | 36° |
| 2026-04-15 19:02 | 62.10917 | 129.80040 | 1194 ft | 178 kts | 38° |
| 2026-04-15 19:03 | 62.11863 | 129.81643 | 2225 ft | 168 kts | 39° |
| 2026-04-15 19:03 | 62.12634 | 129.82969 | 2823 ft | 133 kts | 38° |
| 2026-04-15 19:03 | 62.13487 | 129.84442 | 2915 ft | 172 kts | 39° |
| 2026-04-15 19:03 | 62.14475 | 129.86183 | 3382 ft | 193 kts | 39° |
| 2026-04-15 19:04 | 62.15506 | 129.87830 | 4424 ft | 179 kts | 32° |
| 2026-04-15 19:04 | 62.16630 | 129.89406 | 4821 ft | 204 kts | 33° |
| 2026-04-15 19:04 | 62.17853 | 129.91237 | 5255 ft | 228 kts | 34° |
| 2026-04-15 19:04 | 62.19335 | 129.93107 | 5507 ft | 272 kts | 19° |
| 2026-04-15 19:05 | 62.21423 | 129.93553 | 5091 ft | 334 kts | 351° |
| 2026-04-15 19:05 | 62.23527 | 129.91768 | 4652 ft | 321 kts | 323° |
| 2026-04-15 19:05 | 62.24889 | 129.88297 | 4797 ft | 290 kts | 301° |
| 2026-04-15 19:05 | 62.25792 | 129.84662 | 5002 ft | 262 kts | 298° |
| 2026-04-15 19:06 | 62.26667 | 129.81477 | 5263 ft | 234 kts | 304° |
| 2026-04-15 19:06 | 62.27603 | 129.78845 | 5494 ft | 210 kts | 309° |
| 2026-04-15 19:06 | 62.28479 | 129.76483 | 5710 ft | 209 kts | 307° |
| 2026-04-15 19:06 | 62.29417 | 129.73809 | 6080 ft | 232 kts | 306° |
| 2026-04-15 19:07 | 62.30387 | 129.70994 | 6595 ft | 239 kts | 305° |
| 2026-04-15 19:07 | 62.31143 | 129.67736 | 7069 ft | 252 kts | 283° |
| 2026-04-15 19:07 | 62.31216 | 129.63913 | 7548 ft | 264 kts | 260° |
| 2026-04-15 19:07 | 62.30585 | 129.60115 | 8065 ft | 277 kts | 243° |
| 2026-04-15 19:08 | 62.29567 | 129.56508 | 8581 ft | 285 kts | 236° |
| 2026-04-15 19:08 | 62.28522 | 129.53193 | 9041 ft | 251 kts | 237° |
| 2026-04-15 19:08 | 62.27648 | 129.50114 | 9277 ft | 242 kts | 239° |
| 2026-04-15 19:08 | 62.26733 | 129.46877 | 9599 ft | 263 kts | 233° |
| 2026-04-15 19:09 | 62.25347 | 129.44145 | 10006 ft | 280 kts | 214° |
| 2026-04-15 19:09 | 62.23624 | 129.41975 | 10401 ft | 295 kts | 207° |
| 2026-04-15 19:09 | 62.21749 | 129.39940 | 10794 ft | 309 kts | 207° |
| 2026-04-15 19:09 | 62.19831 | 129.37631 | 11181 ft | 323 kts | 210° |
| 2026-04-15 19:10 | 62.17868 | 129.35111 | 11587 ft | 335 kts | 210° |
| 2026-04-15 19:10 | 62.15837 | 129.32595 | 12134 ft | 331 kts | 209° |
| 2026-04-15 19:10 | 62.13807 | 129.30153 | 11506 ft | 354 kts | 209° |
| 2026-04-15 19:10 | 62.11740 | 129.26932 | 11216 ft | 383 kts | 225° |
| 2026-04-15 19:11 | 62.09935 | 129.22659 | 11987 ft | 379 kts | 230° |
| 2026-04-15 19:11 | 62.08329 | 129.18274 | 13020 ft | 367 kts | 232° |
| 2026-04-15 19:11 | 62.06909 | 129.14253 | 14019 ft | 312 kts | 231° |
| 2026-04-15 19:11 | 62.05657 | 129.10956 | 14864 ft | 261 kts | 229° |
| 2026-04-15 19:12 | 62.04566 | 129.08152 | 15699 ft | 241 kts | 230° |
| 2026-04-15 19:12 | 62.03517 | 129.05383 | 16510 ft | 243 kts | 230° |
| 2026-04-15 19:12 | 62.02433 | 129.02503 | 17176 ft | 249 kts | 230° |
| 2026-04-15 19:12 | 62.01353 | 128.99648 | 17879 ft | 253 kts | 230° |
| 2026-04-15 19:13 | 62.00240 | 128.96714 | 18590 ft | 256 kts | 230° |
| 2026-04-15 19:13 | 61.99115 | 128.93752 | 19241 ft | 259 kts | 231° |
| 2026-04-15 19:13 | 61.97977 | 128.90758 | 19898 ft | 261 kts | 231° |
| 2026-04-15 19:13 | 61.96832 | 128.87744 | 20566 ft | 263 kts | 232° |
| 2026-04-15 19:14 | 61.95891 | 128.84423 | 21241 ft | 264 kts | 245° |
| 2026-04-15 19:14 | 61.95298 | 128.80733 | 21936 ft | 265 kts | 252° |
| 2026-04-15 19:14 | 61.94823 | 128.76961 | 22642 ft | 264 kts | 252° |
| 2026-04-15 19:14 | 61.94289 | 128.73245 | 23358 ft | 262 kts | 250° |
| 2026-04-15 19:15 | 61.93699 | 128.69469 | 23634 ft | 276 kts | 250° |
| 2026-04-15 19:15 | 61.93092 | 128.65501 | 23884 ft | 289 kts | 250° |
| 2026-04-15 19:15 | 61.92475 | 128.61355 | 24115 ft | 300 kts | 250° |
| 2026-04-15 19:15 | 61.91832 | 128.57067 | 24343 ft | 310 kts | 250° |
| 2026-04-15 19:16 | 61.91163 | 128.52657 | 24566 ft | 318 kts | 250° |
| 2026-04-15 19:16 | 61.90471 | 128.48105 | 24798 ft | 330 kts | 250° |
| 2026-04-15 19:16 | 61.89756 | 128.43405 | 25022 ft | 337 kts | 250° |
| 2026-04-15 19:16 | 61.89060 | 128.38812 | 25231 ft | 328 kts | 250° |
| 2026-04-15 19:17 | 61.88343 | 128.34136 | 25430 ft | 339 kts | 250° |
| 2026-04-15 19:17 | 61.87599 | 128.29304 | 25653 ft | 350 kts | 250° |
| 2026-04-15 19:17 | 61.87094 | 128.26015 | 25806 ft | 357 kts | 250° |
| 2026-04-15 19:17 | 61.86046 | 128.19196 | 26104 ft | 370 kts | 250° |
| 2026-04-15 19:18 | 61.85511 | 128.15734 | 26282 ft | 376 kts | 250° |
| 2026-04-15 19:18 | 61.84410 | 128.08649 | 26600 ft | 388 kts | 250° |
| 2026-04-15 19:18 | 61.82685 | 127.97567 | 27053 ft | 404 kts | 250° |
| 2026-04-15 19:19 | 61.81792 | 127.91865 | 27283 ft | 412 kts | 250° |
| 2026-04-15 19:19 | 61.81192 | 127.88037 | 27455 ft | 396 kts | 250° |
| 2026-04-15 19:19 | 61.80347 | 127.82658 | 27638 ft | 393 kts | 249° |
| 2026-04-15 19:19 | 61.79472 | 127.77141 | 27851 ft | 400 kts | 249° |
| 2026-04-15 19:20 | 61.78579 | 127.71516 | 28079 ft | 407 kts | 249° |
| 2026-04-15 19:20 | 61.77674 | 127.65804 | 28319 ft | 413 kts | 249° |
| 2026-04-15 19:20 | 61.76752 | 127.60013 | 28560 ft | 419 kts | 249° |
| 2026-04-15 19:20 | 61.75813 | 127.54150 | 28793 ft | 424 kts | 249° |
| 2026-04-15 19:21 | 61.74859 | 127.48211 | 29028 ft | 429 kts | 249° |
| 2026-04-15 19:21 | 61.73894 | 127.42209 | 29278 ft | 434 kts | 249° |
| 2026-04-15 19:21 | 61.72915 | 127.36149 | 29524 ft | 439 kts | 249° |
| 2026-04-15 19:21 | 61.71924 | 127.30031 | 29768 ft | 443 kts | 249° |
| 2026-04-15 19:22 | 61.70919 | 127.23856 | 30017 ft | 447 kts | 249° |
| 2026-04-15 19:22 | 61.69903 | 127.17636 | 30243 ft | 451 kts | 249° |
| 2026-04-15 19:22 | 61.68877 | 127.11364 | 30444 ft | 454 kts | 249° |
| 2026-04-15 19:22 | 61.67844 | 127.05071 | 30645 ft | 458 kts | 249° |
| 2026-04-15 19:23 | 61.66793 | 126.98706 | 30843 ft | 461 kts | 249° |
| 2026-04-15 19:23 | 61.65748 | 126.92385 | 31041 ft | 455 kts | 249° |
| 2026-04-15 19:23 | 61.64706 | 126.86104 | 31246 ft | 453 kts | 248° |
| 2026-04-15 19:23 | 61.63668 | 126.79878 | 31432 ft | 451 kts | 248° |
| 2026-04-15 19:24 | 61.62630 | 126.73675 | 31625 ft | 449 kts | 248° |
| 2026-04-15 19:24 | 61.61594 | 126.67497 | 31815 ft | 447 kts | 248° |
| 2026-04-15 19:24 | 61.60562 | 126.61360 | 32038 ft | 445 kts | 248° |
| 2026-04-15 19:24 | 61.59528 | 126.55243 | 32232 ft | 443 kts | 248° |
| 2026-04-15 19:25 | 61.58496 | 126.49154 | 32430 ft | 442 kts | 248° |
| 2026-04-15 19:25 | 61.57465 | 126.43085 | 32635 ft | 441 kts | 248° |
| 2026-04-15 19:25 | 61.56433 | 126.37036 | 32838 ft | 440 kts | 248° |
| 2026-04-15 19:25 | 61.55401 | 126.31008 | 33048 ft | 439 kts | 248° |
| 2026-04-15 19:26 | 61.54370 | 126.24996 | 33260 ft | 438 kts | 247° |
| 2026-04-15 19:26 | 61.53338 | 126.19005 | 33460 ft | 436 kts | 247° |
| 2026-04-15 19:26 | 61.52309 | 126.13046 | 33705 ft | 435 kts | 247° |
| 2026-04-15 19:26 | 61.51279 | 126.07103 | 33916 ft | 433 kts | 247° |
| 2026-04-15 19:27 | 61.50248 | 126.01173 | 34118 ft | 432 kts | 247° |
| 2026-04-15 19:27 | 61.49220 | 125.95283 | 34297 ft | 431 kts | 247° |
| 2026-04-15 19:27 | 61.48193 | 125.89410 | 34472 ft | 428 kts | 247° |
| 2026-04-15 19:27 | 61.47176 | 125.83612 | 34650 ft | 423 kts | 247° |
| 2026-04-15 19:28 | 61.46163 | 125.77851 | 34820 ft | 419 kts | 246° |
| 2026-04-15 19:28 | 61.45174 | 125.72251 | 34997 ft | 411 kts | 246° |
| 2026-04-15 19:28 | 61.44202 | 125.66755 | 35160 ft | 395 kts | 246° |
| 2026-04-15 19:28 | 61.43265 | 125.61471 | 35306 ft | 380 kts | 246° |
| 2026-04-15 19:29 | 61.42361 | 125.56397 | 35442 ft | 366 kts | 246° |
| 2026-04-15 19:29 | 61.41487 | 125.51508 | 35577 ft | 353 kts | 246° |
| 2026-04-15 19:29 | 61.40645 | 125.46804 | 35702 ft | 339 kts | 246° |
| 2026-04-15 19:29 | 61.39838 | 125.42303 | 35824 ft | 322 kts | 246° |
| 2026-04-15 19:30 | 61.39081 | 125.38077 | 35913 ft | 300 kts | 245° |
| 2026-04-15 19:30 | 61.38372 | 125.34144 | 35964 ft | 279 kts | 245° |
| 2026-04-15 19:30 | 61.37716 | 125.30511 | 35953 ft | 257 kts | 245° |
| 2026-04-15 19:30 | 61.37105 | 125.27134 | 35738 ft | 242 kts | 244° |
| 2026-04-15 19:31 | 61.36517 | 125.23908 | 35303 ft | 235 kts | 244° |
| 2026-04-15 19:31 | 61.35937 | 125.20730 | 34773 ft | 234 kts | 244° |
| 2026-04-15 19:31 | 61.35365 | 125.17578 | 34265 ft | 231 kts | 244° |
| 2026-04-15 19:31 | 61.34803 | 125.14483 | 33771 ft | 226 kts | 244° |
| 2026-04-15 19:32 | 61.34256 | 125.11477 | 33283 ft | 219 kts | 244° |
| 2026-04-15 19:32 | 61.33721 | 125.08552 | 32742 ft | 214 kts | 244° |
| 2026-04-15 19:32 | 61.33192 | 125.05687 | 32073 ft | 213 kts | 244° |
| 2026-04-15 19:32 | 61.32717 | 125.02746 | 31286 ft | 218 kts | 242° |
| 2026-04-15 19:33 | 61.32131 | 124.99846 | 30808 ft | 210 kts | 243° |
| 2026-04-15 19:33 | 61.31634 | 124.97217 | 30843 ft | 184 kts | 245° |
| 2026-04-15 19:33 | 61.31182 | 124.94726 | 30223 ft | 189 kts | 244° |
| 2026-04-15 19:33 | 61.30675 | 124.92009 | 29435 ft | 213 kts | 245° |
| 2026-04-15 19:34 | 61.30154 | 124.89160 | 29678 ft | 205 kts | 245° |
| 2026-04-15 19:34 | 61.29652 | 124.86425 | 29957 ft | 200 kts | 245° |
| 2026-04-15 19:34 | 61.29159 | 124.83767 | 30126 ft | 194 kts | 245° |
| 2026-04-15 19:34 | 61.28682 | 124.81194 | 30161 ft | 193 kts | 244° |
| 2026-04-15 19:35 | 61.28183 | 124.78521 | 30059 ft | 198 kts | 245° |
| 2026-04-15 19:35 | 61.27694 | 124.75882 | 30082 ft | 197 kts | 245° |
| 2026-04-15 19:35 | 61.27206 | 124.73249 | 30184 ft | 193 kts | 244° |
| 2026-04-15 19:35 | 61.26718 | 124.70637 | 30138 ft | 196 kts | 244° |
| 2026-04-15 19:36 | 61.26213 | 124.67942 | 30082 ft | 198 kts | 244° |
| 2026-04-15 19:36 | 61.25723 | 124.65329 | 30161 ft | 195 kts | 244° |
| 2026-04-15 19:36 | 61.25232 | 124.62716 | 30199 ft | 194 kts | 244° |
| 2026-04-15 19:36 | 61.24738 | 124.60088 | 30141 ft | 197 kts | 244° |
| 2026-04-15 19:37 | 61.24260 | 124.57530 | 30012 ft | 181 kts | 244° |
| 2026-04-15 19:37 | 61.23804 | 124.55079 | 29234 ft | 187 kts | 244° |
| 2026-04-15 19:37 | 61.23318 | 124.52500 | 28435 ft | 193 kts | 244° |
| 2026-04-15 19:37 | 61.22844 | 124.49980 | 28161 ft | 186 kts | 244° |
| 2026-04-15 19:38 | 61.22367 | 124.47452 | 28166 ft | 187 kts | 244° |
| 2026-04-15 19:38 | 61.21842 | 124.44718 | 27064 ft | 238 kts | 244° |
| 2026-04-15 19:38 | 61.21180 | 124.41392 | 27074 ft | 248 kts | 244° |
| 2026-04-15 19:38 | 61.20603 | 124.38424 | 28594 ft | 196 kts | 244° |
| 2026-04-15 19:39 | 61.20132 | 124.35916 | 29197 ft | 187 kts | 244° |
| 2026-04-15 19:39 | 61.19628 | 124.33264 | 28237 ft | 219 kts | 244° |
| 2026-04-15 19:39 | 61.18941 | 124.29673 | 26439 ft | 300 kts | 245° |
| 2026-04-15 19:39 | 61.18187 | 124.26069 | 27956 ft | 254 kts | 229° |
| 2026-04-15 19:40 | 61.17469 | 124.24892 | 20553 ft | 181 kts | 101° |
| 2026-04-15 19:40 | 61.18336 | 124.30842 | 13640 ft | 522 kts | 71° |
| 2026-04-15 19:40 | 61.19586 | 124.37773 | 14009 ft | 506 kts | 71° |
| 2026-04-15 19:40 | 61.20787 | 124.44548 | 14278 ft | 496 kts | 71° |
| 2026-04-15 19:41 | 61.21950 | 124.51223 | 14503 ft | 489 kts | 71° |
| 2026-04-15 19:41 | 61.23084 | 124.57844 | 14713 ft | 477 kts | 72° |
| 2026-04-15 19:41 | 61.24123 | 124.63976 | 14909 ft | 426 kts | 72° |
| 2026-04-15 19:41 | 61.25052 | 124.69492 | 15082 ft | 386 kts | 72° |
| 2026-04-15 19:42 | 61.25892 | 124.74522 | 15250 ft | 352 kts | 73° |
| 2026-04-15 19:42 | 61.26658 | 124.79154 | 15401 ft | 327 kts | 72° |
| 2026-04-15 19:42 | 61.28169 | 124.82257 | 15094 ft | 318 kts | 10° |
| 2026-04-15 19:42 | 61.30104 | 124.80787 | 12927 ft | 334 kts | 296° |
| 2026-04-15 19:43 | 61.29687 | 124.76037 | 10611 ft | 369 kts | 227° |
| 2026-04-15 19:43 | 61.27946 | 124.72493 | 10858 ft | 333 kts | 223° |
| 2026-04-15 19:43 | 61.26372 | 124.69252 | 11065 ft | 305 kts | 225° |
| 2026-04-15 19:43 | 61.24973 | 124.66169 | 11242 ft | 283 kts | 226° |
| 2026-04-15 19:44 | 61.23702 | 124.63246 | 11400 ft | 264 kts | 227° |
| 2026-04-15 19:44 | 61.22542 | 124.60460 | 11552 ft | 247 kts | 228° |
| 2026-04-15 19:44 | 61.21487 | 124.57802 | 11696 ft | 231 kts | 229° |
| 2026-04-15 19:44 | 61.20529 | 124.55262 | 11838 ft | 216 kts | 231° |
| 2026-04-15 19:45 | 61.19666 | 124.52841 | 11967 ft | 202 kts | 232° |
| 2026-04-15 19:45 | 61.18893 | 124.50538 | 12067 ft | 187 kts | 233° |
| 2026-04-15 19:45 | 61.18154 | 124.48197 | 12244 ft | 207 kts | 235° |
| 2026-04-15 19:45 | 61.17339 | 124.45496 | 12576 ft | 235 kts | 236° |
| 2026-04-15 19:46 | 61.16446 | 124.42429 | 12966 ft | 262 kts | 237° |
| 2026-04-15 19:46 | 61.15494 | 124.39041 | 13335 ft | 290 kts | 238° |
| 2026-04-15 19:46 | 61.14442 | 124.35178 | 13698 ft | 318 kts | 239° |
| 2026-04-15 19:46 | 61.13351 | 124.31058 | 14002 ft | 344 kts | 239° |
| 2026-04-15 19:47 | 61.12179 | 124.26515 | 14270 ft | 371 kts | 240° |
| 2026-04-15 19:47 | 61.10949 | 124.21618 | 14520 ft | 396 kts | 241° |
| 2026-04-15 19:47 | 61.09669 | 124.16397 | 14771 ft | 419 kts | 242° |
| 2026-04-15 19:47 | 61.08347 | 124.10867 | 15004 ft | 440 kts | 242° |
| 2026-04-15 19:48 | 61.06994 | 124.05047 | 15240 ft | 458 kts | 243° |
| 2026-04-15 19:48 | 61.05624 | 123.98981 | 15466 ft | 474 kts | 244° |
| 2026-04-15 19:48 | 61.04285 | 123.92836 | 15713 ft | 448 kts | 244° |
| 2026-04-15 19:48 | 61.03122 | 123.87272 | 15892 ft | 401 kts | 245° |
| 2026-04-15 19:49 | 61.02037 | 123.81893 | 15972 ft | 413 kts | 246° |
| 2026-04-15 19:49 | 61.00940 | 123.76298 | 16005 ft | 431 kts | 246° |
| 2026-04-15 19:49 | 60.99823 | 123.70433 | 16044 ft | 444 kts | 247° |
| 2026-04-15 19:49 | 60.98772 | 123.64708 | 16086 ft | 409 kts | 248° |
| 2026-04-15 19:50 | 60.97844 | 123.59414 | 16145 ft | 377 kts | 248° |
| 2026-04-15 19:50 | 60.97034 | 123.54552 | 16479 ft | 340 kts | 249° |
| 2026-04-15 19:50 | 60.96346 | 123.50176 | 16805 ft | 309 kts | 250° |
| 2026-04-15 19:50 | 60.95705 | 123.45882 | 17148 ft | 320 kts | 250° |
| 2026-04-15 19:51 | 60.95082 | 123.41515 | 17577 ft | 306 kts | 251° |
| 2026-04-15 19:51 | 60.94516 | 123.37297 | 17958 ft | 312 kts | 252° |
| 2026-04-15 19:51 | 60.93951 | 123.32877 | 18363 ft | 326 kts | 253° |
| 2026-04-15 19:51 | 60.93366 | 123.28280 | 18742 ft | 338 kts | 251° |
| 2026-04-15 19:52 | 60.92709 | 123.23570 | 19121 ft | 343 kts | 255° |
| 2026-04-15 19:52 | 60.92460 | 123.18895 | 19416 ft | 315 kts | 265° |
| 2026-04-15 19:52 | 60.92493 | 123.14596 | 19723 ft | 287 kts | 267° |
| 2026-04-15 19:52 | 60.92569 | 123.10661 | 20008 ft | 265 kts | 267° |
| 2026-04-15 19:53 | 60.92655 | 123.06951 | 20299 ft | 256 kts | 267° |
| 2026-04-15 19:53 | 60.92749 | 123.03325 | 20624 ft | 253 kts | 267° |
| 2026-04-15 19:53 | 60.92822 | 122.99729 | 20975 ft | 249 kts | 263° |
| 2026-04-15 19:53 | 60.92663 | 122.96251 | 21346 ft | 239 kts | 253° |
| 2026-04-15 19:54 | 60.92193 | 122.93070 | 21700 ft | 226 kts | 243° |
| 2026-04-15 19:54 | 60.91546 | 122.90209 | 22058 ft | 217 kts | 241° |
| 2026-04-15 19:54 | 60.90925 | 122.87434 | 21660 ft | 213 kts | 241° |
| 2026-04-15 19:54 | 60.90253 | 122.84448 | 19711 ft | 255 kts | 245° |
| 2026-04-15 19:55 | 60.89607 | 122.80840 | 18666 ft | 267 kts | 248° |
| 2026-04-15 19:55 | 60.89019 | 122.77447 | 18432 ft | 245 kts | 246° |
| 2026-04-15 19:55 | 60.88343 | 122.74076 | 16473 ft | 274 kts | 243° |
| 2026-04-15 19:55 | 60.87455 | 122.70361 | 15025 ft | 293 kts | 242° |
| 2026-04-15 19:56 | 60.86665 | 122.66770 | 15057 ft | 259 kts | 245° |
| 2026-04-15 19:56 | 60.85848 | 122.63822 | 12838 ft | 233 kts | 239° |
| 2026-04-15 19:56 | 60.84690 | 122.61952 | 5878 ft | 212 kts | 281° |
| 2026-04-15 19:56 | 60.85137 | 122.60262 | 1540 ft | 2 kts | 197° |
| 2026-04-15 19:57 | 60.85133 | 122.60263 | 1537 ft | 0 kts | 195° |
| 2026-04-15 19:57 | 60.85133 | 122.60262 | 1537 ft | 0 kts | 194° |